Maersk Kotka — CQHT — position and weather

sailwx.info

Track history (hours):
 
Tides and Currents Weather Stations Pressure Air Temp Water Temp Dewpoint Dewpoint Depression Visibility Wind Speed Wind Dir Waves Ship Positions

Maersk Kotka

Last reported at 2018-Feb-21 23:14 UTC. Time now 2018-Feb-22 04:35 UTC.
Position N 19°40' W 096°07'.

Length 318 m; draft 10 m.

Type: Ship (hazmat cat A). MMSI: 255805595.

Date/timePositionNaut miles runAvg speedWind from/ knotsBaromVisibWave heightAir tempDewpointWater temp
2018-Feb-21 23:14N 19°40' W 096°07'314.1
2018-Feb-21 23:01N 19°37' W 096°06'714.3
2018-Feb-21 22:30N 19°30' W 096°03'714.4
2018-Feb-21 22:00N 19°24' W 095°60'714.3
2018-Feb-21 21:31N 19°17' W 095°57'611.9
2018-Feb-21 21:00N 19°12' W 096°00'510.0
2018-Feb-21 20:31N 19°12' W 096°05'3 5.0
2018-Feb-21 20:00N 19°13' W 096°08'0 0.2
2018-Feb-21 19:29N 19°13' W 096°08'0 0.0
2018-Feb-21 18:56N 19°13' W 096°08'0 0.0
2018-Feb-21 18:26N 19°13' W 096°08'0 0.0
2018-Feb-21 17:59N 19°13' W 096°08'0 0.0
2018-Feb-21 17:29N 19°13' W 096°08'0 0.0
2018-Feb-21 16:53N 19°13' W 096°08'0 0.0
2018-Feb-21 16:29N 19°13' W 096°08'0 0.0
2018-Feb-21 15:59N 19°13' W 096°08'0 0.0
2018-Feb-21 15:29N 19°13' W 096°08'0 0.0
2018-Feb-21 14:59N 19°13' W 096°08'0 0.0
2018-Feb-21 14:29N 19°13' W 096°08'0 0.0
2018-Feb-21 13:59N 19°13' W 096°08'0 0.0
2018-Feb-21 13:29N 19°13' W 096°08'0 0.0
2018-Feb-21 12:59N 19°13' W 096°08'0 0.0
2018-Feb-21 12:29N 19°13' W 096°08'0 0.0
2018-Feb-21 11:59N 19°13' W 096°08'0 0.0
2018-Feb-21 11:29N 19°13' W 096°08'0 0.0
2018-Feb-21 10:59N 19°13' W 096°08'0 0.0
2018-Feb-21 10:29N 19°13' W 096°08'0 0.0
2018-Feb-21 09:59N 19°13' W 096°08'0 0.0
2018-Feb-21 09:29N 19°13' W 096°08'0 0.0
2018-Feb-21 08:56N 19°13' W 096°08'0 0.0
2018-Feb-21 08:23N 19°13' W 096°08'0 0.0
2018-Feb-21 07:59N 19°13' W 096°08'0 0.0
2018-Feb-21 07:29N 19°13' W 096°08'0 0.0
2018-Feb-21 06:59N 19°13' W 096°08'0 0.0
2018-Feb-21 06:29N 19°13' W 096°08'0 0.0
2018-Feb-21 05:59N 19°13' W 096°08'0 0.0
2018-Feb-21 05:29N 19°13' W 096°08'0 0.0
2018-Feb-21 04:59N 19°13' W 096°08'0 0.0
2018-Feb-21 04:29N 19°13' W 096°08'0 0.0
2018-Feb-21 03:59N 19°13' W 096°08'0 0.0
2018-Feb-21 03:29N 19°13' W 096°08'0 0.0
2018-Feb-21 02:59N 19°13' W 096°08'0 0.0
2018-Feb-21 02:26N 19°13' W 096°08'0 0.0
2018-Feb-21 01:59N 19°13' W 096°08'0 0.0
2018-Feb-21 01:29N 19°13' W 096°08'0 0.0
2018-Feb-21 00:59N 19°13' W 096°08'0 0.0
2018-Feb-21 00:29N 19°13' W 096°08'0 0.0
2018-Feb-20 23:59N 19°13' W 096°08'0 0.0
2018-Feb-20 23:26N 19°13' W 096°08'0 0.0
2018-Feb-20 22:56N 19°13' W 096°08'0 0.0
2018-Feb-20 22:29N 19°13' W 096°08'0 0.0
2018-Feb-20 21:59N 19°13' W 096°08'0 0.0
2018-Feb-20 21:29N 19°13' W 096°08'0 0.3
2018-Feb-20 21:00N 19°13' W 096°08'3 5.8
2018-Feb-20 20:30N 19°12' W 096°05'5 9.6
2018-Feb-20 20:00N 19°13' W 095°60'815.9
2018-Feb-20 19:30N 19°14' W 095°52'917.2
2018-Feb-20 19:01N 19°16' W 095°43'1020.5
2018-Feb-20 18:30N 19°20' W 095°33'  
2018-Feb-16 12:02N 31°04' W 080°08'111.6
2018-Feb-16 11:59N 31°05' W 080°08'711.6
2018-Feb-16 11:26N 31°11' W 080°11'611.5
2018-Feb-16 10:53N 31°17' W 080°14'511.5
2018-Feb-16 10:28N 31°21' W 080°16'711.4
2018-Feb-16 09:54N 31°27' W 080°19'611.1
2018-Feb-16 09:21N 31°33' W 080°21'411.7
2018-Feb-16 08:58N 31°37' W 080°24'5 9.3
2018-Feb-16 08:25N 31°41' W 080°26'7 8.0
2018-Feb-16 07:36N 31°48' W 080°29'2 8.3
2018-Feb-16 07:20N 31°50' W 080°30'3 8.1
2018-Feb-16 07:00N 31°52' W 080°31'4 8.7
2018-Feb-16 06:30N 31°55' W 080°35'4 9.0
2018-Feb-16 06:00N 31°57' W 080°40'5 9.7
2018-Feb-16 05:30N 31°59' W 080°45'714.3
2018-Feb-16 05:00N 32°02' W 080°52'612.4
2018-Feb-16 04:30N 32°05' W 080°59'5 8.9
2018-Feb-16 04:00N 32°05' W 081°04'4 7.4
2018-Feb-16 03:30N 32°07' W 081°08'1 1.4
2018-Feb-16 02:57N 32°08' W 081°08'0 0.0
2018-Feb-16 02:27N 32°08' W 081°08'0 0.0
2018-Feb-16 01:57N 32°08' W 081°08'0 0.0
2018-Feb-16 01:27N 32°08' W 081°08'0 0.0
2018-Feb-16 00:57N 32°08' W 081°08'0 0.0
2018-Feb-16 00:27N 32°08' W 081°08'0 0.0
2018-Feb-15 23:57N 32°08' W 081°08'0 0.0
2018-Feb-15 23:15N 32°08' W 081°08'0 0.0
2018-Feb-15 22:57N 32°08' W 081°08'0 0.0
2018-Feb-15 22:27N 32°08' W 081°08'0 0.0
2018-Feb-15 21:57N 32°08' W 081°08'0 0.0
2018-Feb-15 21:27N 32°08' W 081°08'0 0.0
2018-Feb-15 20:57N 32°08' W 081°08'0 0.0
2018-Feb-15 20:27N 32°08' W 081°08'0 0.0
2018-Feb-15 19:57N 32°08' W 081°08'0 0.0
2018-Feb-15 19:27N 32°08' W 081°08'0 0.0
2018-Feb-15 18:57N 32°08' W 081°08'0 0.0
2018-Feb-15 18:27N 32°08' W 081°08'0 0.0
2018-Feb-15 17:57N 32°08' W 081°08'0 0.0
2018-Feb-15 17:27N 32°08' W 081°08'0 0.0
2018-Feb-15 16:57N 32°08' W 081°08'0 0.0
2018-Feb-15 16:15N 32°08' W 081°08'0 0.0
2018-Feb-15 16:00N 32°08' W 081°08'0 0.4
2018-Feb-15 15:30N 32°08' W 081°08'3 5.5
2018-Feb-15 15:00N 32°06' W 081°06'3 5.9
2018-Feb-15 14:30N 32°05' W 081°03'5 9.0
2018-Feb-15 14:00N 32°04' W 080°58'510.4
2018-Feb-15 13:30N 32°02' W 080°52'613.1
2018-Feb-15 13:01N 31°59' W 080°45'611.9
2018-Feb-15 12:30N 31°57' W 080°39'2 4.9
2018-Feb-15 12:00N 31°56' W 080°36'3 5.1
2018-Feb-15 11:30N 31°56' W 080°33'0 0.8
2018-Feb-15 11:00N 31°56' W 080°33'0 0.3
2018-Feb-15 10:28N 31°56' W 080°33'0 0.0
2018-Feb-15 09:46N 31°56' W 080°33'0 0.0
2018-Feb-15 09:28N 31°56' W 080°33'0 0.0
2018-Feb-15 08:58N 31°56' W 080°33'0 0.0
2018-Feb-15 08:22N 31°56' W 080°33'0 0.0
2018-Feb-15 07:52N 31°56' W 080°33'0 0.0
2018-Feb-15 07:28N 31°56' W 080°33'0 0.0
2018-Feb-15 06:58N 31°56' W 080°33'0 0.2
2018-Feb-15 06:22N 31°56' W 080°33'0 0.2
2018-Feb-15 05:58N 31°56' W 080°33'0 0.1
2018-Feb-15 05:28N 31°56' W 080°33'0 0.0
2018-Feb-15 04:58N 31°56' W 080°33'0 0.0
2018-Feb-15 04:28N 31°56' W 080°33'0 0.0
2018-Feb-15 03:58N 31°56' W 080°33'0 0.0
2018-Feb-15 03:28N 31°56' W 080°33'0 0.0
2018-Feb-15 02:58N 31°56' W 080°33'0 0.0
2018-Feb-15 02:28N 31°56' W 080°33'0 0.1
2018-Feb-15 01:58N 31°56' W 080°33'0 0.1
2018-Feb-15 00:46N 31°56' W 080°33'0 0.1
2018-Feb-15 00:10N 31°56' W 080°33'0 0.0
2018-Feb-14 23:52N 31°56' W 080°33'0 0.0
2018-Feb-14 23:28N 31°56' W 080°33'0 0.0
2018-Feb-14 22:58N 31°56' W 080°33'0 0.0
2018-Feb-14 22:28N 31°56' W 080°33'0 0.0
2018-Feb-14 21:58N 31°56' W 080°33'0 0.0
2018-Feb-14 21:28N 31°56' W 080°33'0 0.0
2018-Feb-14 20:58N 31°56' W 080°33'0 0.0
2018-Feb-14 20:28N 31°56' W 080°33'0 0.0
2018-Feb-14 19:58N 31°56' W 080°33'0 0.0
2018-Feb-14 19:28N 31°56' W 080°33'0 0.0
2018-Feb-14 18:58N 31°56' W 080°33'0 0.1
2018-Feb-14 17:46N 31°56' W 080°33'0 0.1
2018-Feb-14 17:28N 31°56' W 080°33'0 0.1
2018-Feb-14 16:58N 31°56' W 080°33'0 0.0
2018-Feb-14 16:22N 31°56' W 080°33'0 0.0
2018-Feb-14 15:58N 31°56' W 080°33'0 0.0
2018-Feb-14 15:28N 31°56' W 080°33'0 0.1
2018-Feb-14 14:58N 31°56' W 080°33'0 0.0
2018-Feb-14 14:10N 31°56' W 080°33'0 0.0
2018-Feb-14 13:58N 31°56' W 080°33'0 0.0
2018-Feb-14 13:22N 31°56' W 080°33'0 0.2
2018-Feb-14 12:58N 31°56' W 080°33'0 0.1
2018-Feb-14 12:28N 31°56' W 080°33'0 0.1
2018-Feb-14 11:58N 31°56' W 080°33'0 0.0
2018-Feb-14 11:22N 31°56' W 080°33'0 0.0
2018-Feb-14 10:58N 31°56' W 080°33'0 0.1
2018-Feb-14 10:28N 31°56' W 080°33'0 0.0
2018-Feb-14 09:58N 31°56' W 080°33'0 0.0
2018-Feb-14 09:28N 31°56' W 080°33'0 0.0
2018-Feb-14 08:58N 31°56' W 080°33'0 0.1
2018-Feb-14 08:28N 31°56' W 080°33'0 0.0
2018-Feb-14 07:58N 31°56' W 080°33'0 0.0
2018-Feb-14 07:16N 31°56' W 080°33'0 0.0
2018-Feb-14 06:04N 31°56' W 080°33'0 0.1
2018-Feb-14 05:58N 31°56' W 080°33'0 0.1
2018-Feb-14 05:28N 31°56' W 080°33'0 0.0
2018-Feb-14 04:58N 31°56' W 080°33'0 0.0
2018-Feb-14 04:22N 31°56' W 080°33'0 0.0
2018-Feb-14 03:58N 31°56' W 080°33'0 0.0
2018-Feb-14 03:28N 31°56' W 080°33'0 0.0
2018-Feb-14 02:58N 31°56' W 080°33'0 0.0
2018-Feb-14 02:28N 31°56' W 080°33'0 0.0
2018-Feb-14 01:58N 31°56' W 080°33'0 0.0
2018-Feb-14 01:28N 31°56' W 080°33'0 0.0
2018-Feb-14 00:46N 31°56' W 080°33'0 0.1
2018-Feb-14 00:28N 31°56' W 080°33'0 0.0
2018-Feb-13 23:58N 31°56' W 080°33'0 0.1
2018-Feb-13 23:28N 31°56' W 080°33'0 0.0
2018-Feb-13 22:58N 31°56' W 080°33'0 0.0
2018-Feb-13 22:28N 31°56' W 080°33'0 0.0
2018-Feb-13 21:58N 31°56' W 080°33'0 0.0
2018-Feb-13 21:28N 31°56' W 080°33'0 0.0
2018-Feb-13 20:58N 31°56' W 080°33'0 0.1
2018-Feb-13 20:28N 31°56' W 080°33'1 1.7
2018-Feb-13 20:00N 31°56' W 080°32'5 8.1
2018-Feb-13 19:24N 31°56' W 080°26'4 9.3
2018-Feb-13 19:00N 31°56' W 080°22'  
Track history (hours):
 
Tides and Currents Weather Stations Pressure Air Temp Water Temp Dewpoint Dewpoint Depression Visibility Wind Speed Wind Dir Waves Ship Positions

Maersk Kotka

Last reported at 2018-Feb-21 23:14 UTC. Time now 2018-Feb-22 04:35 UTC.
Position N 19°40' W 096°07'.

Length 318 m; draft 10 m.

Type: Ship (hazmat cat A). MMSI: 255805595.

Date/timePositionNaut miles runAvg speedWind from/ knotsBaromVisibWave heightAir tempDewpointWater temp
2018-Feb-21 23:14N 19°40' W 096°07'314.1
2018-Feb-21 23:01N 19°37' W 096°06'714.3
2018-Feb-21 22:30N 19°30' W 096°03'714.4
2018-Feb-21 22:00N 19°24' W 095°60'714.3
2018-Feb-21 21:31N 19°17' W 095°57'611.9
2018-Feb-21 21:00N 19°12' W 096°00'510.0
2018-Feb-21 20:31N 19°12' W 096°05'3 5.0
2018-Feb-21 20:00N 19°13' W 096°08'0 0.2
2018-Feb-21 19:29N 19°13' W 096°08'0 0.0
2018-Feb-21 18:56N 19°13' W 096°08'0 0.0
2018-Feb-21 18:26N 19°13' W 096°08'0 0.0
2018-Feb-21 17:59N 19°13' W 096°08'0 0.0
2018-Feb-21 17:29N 19°13' W 096°08'0 0.0
2018-Feb-21 16:53N 19°13' W 096°08'0 0.0
2018-Feb-21 16:29N 19°13' W 096°08'0 0.0
2018-Feb-21 15:59N 19°13' W 096°08'0 0.0
2018-Feb-21 15:29N 19°13' W 096°08'0 0.0
2018-Feb-21 14:59N 19°13' W 096°08'0 0.0
2018-Feb-21 14:29N 19°13' W 096°08'0 0.0
2018-Feb-21 13:59N 19°13' W 096°08'0 0.0
2018-Feb-21 13:29N 19°13' W 096°08'0 0.0
2018-Feb-21 12:59N 19°13' W 096°08'0 0.0
2018-Feb-21 12:29N 19°13' W 096°08'0 0.0
2018-Feb-21 11:59N 19°13' W 096°08'0 0.0
2018-Feb-21 11:29N 19°13' W 096°08'0 0.0
2018-Feb-21 10:59N 19°13' W 096°08'0 0.0
2018-Feb-21 10:29N 19°13' W 096°08'0 0.0
2018-Feb-21 09:59N 19°13' W 096°08'0 0.0
2018-Feb-21 09:29N 19°13' W 096°08'0 0.0
2018-Feb-21 08:56N 19°13' W 096°08'0 0.0
2018-Feb-21 08:23N 19°13' W 096°08'0 0.0
2018-Feb-21 07:59N 19°13' W 096°08'0 0.0
2018-Feb-21 07:29N 19°13' W 096°08'0 0.0
2018-Feb-21 06:59N 19°13' W 096°08'0 0.0
2018-Feb-21 06:29N 19°13' W 096°08'0 0.0
2018-Feb-21 05:59N 19°13' W 096°08'0 0.0
2018-Feb-21 05:29N 19°13' W 096°08'0 0.0
2018-Feb-21 04:59N 19°13' W 096°08'0 0.0
2018-Feb-21 04:29N 19°13' W 096°08'0 0.0
2018-Feb-21 03:59N 19°13' W 096°08'0 0.0
2018-Feb-21 03:29N 19°13' W 096°08'0 0.0
2018-Feb-21 02:59N 19°13' W 096°08'0 0.0
2018-Feb-21 02:26N 19°13' W 096°08'0 0.0
2018-Feb-21 01:59N 19°13' W 096°08'0 0.0
2018-Feb-21 01:29N 19°13' W 096°08'0 0.0
2018-Feb-21 00:59N 19°13' W 096°08'0 0.0
2018-Feb-21 00:29N 19°13' W 096°08'0 0.0
2018-Feb-20 23:59N 19°13' W 096°08'0 0.0
2018-Feb-20 23:26N 19°13' W 096°08'0 0.0
2018-Feb-20 22:56N 19°13' W 096°08'0 0.0
2018-Feb-20 22:29N 19°13' W 096°08'0 0.0
2018-Feb-20 21:59N 19°13' W 096°08'0 0.0
2018-Feb-20 21:29N 19°13' W 096°08'0 0.3
2018-Feb-20 21:00N 19°13' W 096°08'3 5.8
2018-Feb-20 20:30N 19°12' W 096°05'5 9.6
2018-Feb-20 20:00N 19°13' W 095°60'815.9
2018-Feb-20 19:30N 19°14' W 095°52'917.2
2018-Feb-20 19:01N 19°16' W 095°43'1020.5
2018-Feb-20 18:30N 19°20' W 095°33'  
2018-Feb-16 12:02N 31°04' W 080°08'111.6
2018-Feb-16 11:59N 31°05' W 080°08'711.6
2018-Feb-16 11:26N 31°11' W 080°11'611.5
2018-Feb-16 10:53N 31°17' W 080°14'511.5
2018-Feb-16 10:28N 31°21' W 080°16'711.4
2018-Feb-16 09:54N 31°27' W 080°19'611.1
2018-Feb-16 09:21N 31°33' W 080°21'411.7
2018-Feb-16 08:58N 31°37' W 080°24'5 9.3
2018-Feb-16 08:25N 31°41' W 080°26'7 8.0
2018-Feb-16 07:36N 31°48' W 080°29'2 8.3
2018-Feb-16 07:20N 31°50' W 080°30'3 8.1
2018-Feb-16 07:00N 31°52' W 080°31'4 8.7
2018-Feb-16 06:30N 31°55' W 080°35'4 9.0
2018-Feb-16 06:00N 31°57' W 080°40'5 9.7
2018-Feb-16 05:30N 31°59' W 080°45'714.3
2018-Feb-16 05:00N 32°02' W 080°52'612.4
2018-Feb-16 04:30N 32°05' W 080°59'5 8.9
2018-Feb-16 04:00N 32°05' W 081°04'4 7.4
2018-Feb-16 03:30N 32°07' W 081°08'1 1.4
2018-Feb-16 02:57N 32°08' W 081°08'0 0.0
2018-Feb-16 02:27N 32°08' W 081°08'0 0.0
2018-Feb-16 01:57N 32°08' W 081°08'0 0.0
2018-Feb-16 01:27N 32°08' W 081°08'0 0.0
2018-Feb-16 00:57N 32°08' W 081°08'0 0.0
2018-Feb-16 00:27N 32°08' W 081°08'0 0.0
2018-Feb-15 23:57N 32°08' W 081°08'0 0.0
2018-Feb-15 23:15N 32°08' W 081°08'0 0.0
2018-Feb-15 22:57N 32°08' W 081°08'0 0.0
2018-Feb-15 22:27N 32°08' W 081°08'0 0.0
2018-Feb-15 21:57N 32°08' W 081°08'0 0.0
2018-Feb-15 21:27N 32°08' W 081°08'0 0.0
2018-Feb-15 20:57N 32°08' W 081°08'0 0.0
2018-Feb-15 20:27N 32°08' W 081°08'0 0.0
2018-Feb-15 19:57N 32°08' W 081°08'0 0.0
2018-Feb-15 19:27N 32°08' W 081°08'0 0.0
2018-Feb-15 18:57N 32°08' W 081°08'0 0.0
2018-Feb-15 18:27N 32°08' W 081°08'0 0.0
2018-Feb-15 17:57N 32°08' W 081°08'0 0.0
2018-Feb-15 17:27N 32°08' W 081°08'0 0.0
2018-Feb-15 16:57N 32°08' W 081°08'0 0.0
2018-Feb-15 16:15N 32°08' W 081°08'0 0.0
2018-Feb-15 16:00N 32°08' W 081°08'0 0.4
2018-Feb-15 15:30N 32°08' W 081°08'3 5.5
2018-Feb-15 15:00N 32°06' W 081°06'3 5.9
2018-Feb-15 14:30N 32°05' W 081°03'5 9.0
2018-Feb-15 14:00N 32°04' W 080°58'510.4
2018-Feb-15 13:30N 32°02' W 080°52'613.1
2018-Feb-15 13:01N 31°59' W 080°45'611.9
2018-Feb-15 12:30N 31°57' W 080°39'2 4.9
2018-Feb-15 12:00N 31°56' W 080°36'3 5.1
2018-Feb-15 11:30N 31°56' W 080°33'0 0.8
2018-Feb-15 11:00N 31°56' W 080°33'0 0.3
2018-Feb-15 10:28N 31°56' W 080°33'0 0.0
2018-Feb-15 09:46N 31°56' W 080°33'0 0.0
2018-Feb-15 09:28N 31°56' W 080°33'0 0.0
2018-Feb-15 08:58N 31°56' W 080°33'0 0.0
2018-Feb-15 08:22N 31°56' W 080°33'0 0.0
2018-Feb-15 07:52N 31°56' W 080°33'0 0.0
2018-Feb-15 07:28N 31°56' W 080°33'0 0.0
2018-Feb-15 06:58N 31°56' W 080°33'0 0.2
2018-Feb-15 06:22N 31°56' W 080°33'0 0.2
2018-Feb-15 05:58N 31°56' W 080°33'0 0.1
2018-Feb-15 05:28N 31°56' W 080°33'0 0.0
2018-Feb-15 04:58N 31°56' W 080°33'0 0.0
2018-Feb-15 04:28N 31°56' W 080°33'0 0.0
2018-Feb-15 03:58N 31°56' W 080°33'0 0.0
2018-Feb-15 03:28N 31°56' W 080°33'0 0.0
2018-Feb-15 02:58N 31°56' W 080°33'0 0.0
2018-Feb-15 02:28N 31°56' W 080°33'0 0.1
2018-Feb-15 01:58N 31°56' W 080°33'0 0.1
2018-Feb-15 00:46N 31°56' W 080°33'0 0.1
2018-Feb-15 00:10N 31°56' W 080°33'0 0.0
2018-Feb-14 23:52N 31°56' W 080°33'0 0.0
2018-Feb-14 23:28N 31°56' W 080°33'0 0.0
2018-Feb-14 22:58N 31°56' W 080°33'0 0.0
2018-Feb-14 22:28N 31°56' W 080°33'0 0.0
2018-Feb-14 21:58N 31°56' W 080°33'0 0.0
2018-Feb-14 21:28N 31°56' W 080°33'0 0.0
2018-Feb-14 20:58N 31°56' W 080°33'0 0.0
2018-Feb-14 20:28N 31°56' W 080°33'0 0.0
2018-Feb-14 19:58N 31°56' W 080°33'0 0.0
2018-Feb-14 19:28N 31°56' W 080°33'0 0.0
2018-Feb-14 18:58N 31°56' W 080°33'0 0.1
2018-Feb-14 17:46N 31°56' W 080°33'0 0.1
2018-Feb-14 17:28N 31°56' W 080°33'0 0.1
2018-Feb-14 16:58N 31°56' W 080°33'0 0.0
2018-Feb-14 16:22N 31°56' W 080°33'0 0.0
2018-Feb-14 15:58N 31°56' W 080°33'0 0.0
2018-Feb-14 15:28N 31°56' W 080°33'0 0.1
2018-Feb-14 14:58N 31°56' W 080°33'0 0.0
2018-Feb-14 14:10N 31°56' W 080°33'0 0.0
2018-Feb-14 13:58N 31°56' W 080°33'0 0.0
2018-Feb-14 13:22N 31°56' W 080°33'0 0.2
2018-Feb-14 12:58N 31°56' W 080°33'0 0.1
2018-Feb-14 12:28N 31°56' W 080°33'0 0.1
2018-Feb-14 11:58N 31°56' W 080°33'0 0.0
2018-Feb-14 11:22N 31°56' W 080°33'0 0.0
2018-Feb-14 10:58N 31°56' W 080°33'0 0.1
2018-Feb-14 10:28N 31°56' W 080°33'0 0.0
2018-Feb-14 09:58N 31°56' W 080°33'0 0.0
2018-Feb-14 09:28N 31°56' W 080°33'0 0.0
2018-Feb-14 08:58N 31°56' W 080°33'0 0.1
2018-Feb-14 08:28N 31°56' W 080°33'0 0.0
2018-Feb-14 07:58N 31°56' W 080°33'0 0.0
2018-Feb-14 07:16N 31°56' W 080°33'0 0.0
2018-Feb-14 06:04N 31°56' W 080°33'0 0.1
2018-Feb-14 05:58N 31°56' W 080°33'0 0.1
2018-Feb-14 05:28N 31°56' W 080°33'0 0.0
2018-Feb-14 04:58N 31°56' W 080°33'0 0.0
2018-Feb-14 04:22N 31°56' W 080°33'0 0.0
2018-Feb-14 03:58N 31°56' W 080°33'0 0.0
2018-Feb-14 03:28N 31°56' W 080°33'0 0.0
2018-Feb-14 02:58N 31°56' W 080°33'0 0.0
2018-Feb-14 02:28N 31°56' W 080°33'0 0.0
2018-Feb-14 01:58N 31°56' W 080°33'0 0.0
2018-Feb-14 01:28N 31°56' W 080°33'0 0.0
2018-Feb-14 00:46N 31°56' W 080°33'0 0.1
2018-Feb-14 00:28N 31°56' W 080°33'0 0.0
2018-Feb-13 23:58N 31°56' W 080°33'0 0.1
2018-Feb-13 23:28N 31°56' W 080°33'0 0.0
2018-Feb-13 22:58N 31°56' W 080°33'0 0.0
2018-Feb-13 22:28N 31°56' W 080°33'0 0.0
2018-Feb-13 21:58N 31°56' W 080°33'0 0.0
2018-Feb-13 21:28N 31°56' W 080°33'0 0.0
2018-Feb-13 20:58N 31°56' W 080°33'0 0.1
2018-Feb-13 20:28N 31°56' W 080°33'1 1.7
2018-Feb-13 20:00N 31°56' W 080°32'5 8.1
2018-Feb-13 19:24N 31°56' W 080°26'4 9.3
2018-Feb-13 19:00N 31°56' W 080°22'  

Dump ship's entire track history